createdAt,value
2019-03-04T00:01:12.343Z,8.70
2019-03-04T00:03:38.444Z,8.70
2019-03-04T00:06:04.503Z,8.70
2019-03-04T00:08:32.774Z,8.80
2019-03-04T00:10:58.590Z,8.80
2019-03-04T00:13:24.763Z,8.80
2019-03-04T00:15:50.939Z,8.90
2019-03-04T00:18:17.062Z,8.90
2019-03-04T00:20:43.137Z,8.90
2019-03-04T00:23:09.204Z,8.80
2019-03-04T00:25:35.299Z,8.80
2019-03-04T00:28:01.367Z,8.90
2019-03-04T00:30:27.466Z,8.90
2019-03-04T00:32:53.527Z,8.90
2019-03-04T00:35:19.620Z,9.00
2019-03-04T00:37:45.688Z,9.10
2019-03-04T00:40:14.678Z,9.10
2019-03-04T00:42:41.458Z,9.00
2019-03-04T00:45:09.886Z,8.90
2019-03-04T00:47:35.975Z,8.90
2019-03-04T00:50:04.575Z,8.80
2019-03-04T00:52:30.647Z,8.80
2019-03-04T00:54:56.744Z,8.70
2019-03-04T00:57:22.807Z,8.70
2019-03-04T00:59:48.906Z,8.60
2019-03-04T01:02:15.000Z,8.70
2019-03-04T01:04:41.167Z,8.60
2019-03-04T01:07:07.243Z,8.70
2019-03-04T01:09:33.335Z,8.60
2019-03-04T01:11:59.424Z,8.70
2019-03-04T01:14:25.636Z,8.70
2019-03-04T01:16:51.728Z,8.70
2019-03-04T01:19:17.823Z,8.60
2019-03-04T01:21:43.906Z,8.50
2019-03-04T01:24:10.093Z,8.40
2019-03-04T01:26:36.168Z,8.30
2019-03-04T01:29:02.508Z,8.20
2019-03-04T01:31:28.591Z,8.20
2019-03-04T01:33:54.673Z,8.20
2019-03-04T01:36:20.758Z,8.10
2019-03-04T01:38:46.846Z,8.10
2019-03-04T01:41:12.934Z,8.10
2019-03-04T01:43:39.003Z,8.10
2019-03-04T01:46:05.088Z,8.10
2019-03-04T01:48:31.153Z,8.00
2019-03-04T01:50:57.235Z,8.10
2019-03-04T01:53:23.307Z,8.00
2019-03-04T01:55:49.397Z,8.00
2019-03-04T01:58:15.503Z,8.00
2019-03-04T02:00:41.583Z,8.00
2019-03-04T02:03:07.662Z,8.00
2019-03-04T02:05:33.752Z,8.00
2019-03-04T02:07:59.823Z,7.90
2019-03-04T02:10:25.919Z,7.80
2019-03-04T02:12:52.007Z,7.60
2019-03-04T02:15:18.892Z,7.60
2019-03-04T02:17:44.978Z,7.50
2019-03-04T02:20:13.675Z,7.50
2019-03-04T02:22:39.745Z,7.50
2019-03-04T02:25:11.088Z,7.50
2019-03-04T02:27:37.854Z,7.50
2019-03-04T02:30:10.799Z,7.50
2019-03-04T02:32:36.969Z,7.50
2019-03-04T02:35:03.838Z,7.50
2019-03-04T02:37:29.918Z,7.40
2019-03-04T02:39:55.981Z,7.40
2019-03-04T02:42:22.066Z,7.40
2019-03-04T02:44:48.132Z,7.30
2019-03-04T02:47:14.330Z,7.30
2019-03-04T02:49:40.395Z,7.30
2019-03-04T02:52:06.592Z,7.20
2019-03-04T02:54:32.668Z,7.20
2019-03-04T02:56:58.852Z,7.20
2019-03-04T02:59:24.920Z,7.20
2019-03-04T03:01:51.005Z,7.10
2019-03-04T03:04:17.075Z,7.10
2019-03-04T03:06:43.162Z,7.10
2019-03-04T03:09:10.658Z,7.10
2019-03-04T03:11:36.833Z,7.10
2019-03-04T03:14:03.177Z,7.00
2019-03-04T03:16:29.294Z,7.00
2019-03-04T03:18:55.385Z,6.90
2019-03-04T03:21:21.471Z,6.90
2019-03-04T03:23:47.538Z,6.90
2019-03-04T03:26:13.617Z,6.80
2019-03-04T03:28:39.846Z,6.80
2019-03-04T03:31:05.965Z,6.90
2019-03-04T03:33:32.146Z,6.80
2019-03-04T03:35:58.332Z,6.70
2019-03-04T03:38:24.403Z,6.70
2019-03-04T03:40:50.469Z,6.60
2019-03-04T03:43:16.567Z,6.70
2019-03-04T03:45:42.726Z,6.70
2019-03-04T03:48:08.804Z,6.80
2019-03-04T03:50:34.880Z,6.70
2019-03-04T03:53:00.976Z,6.80
2019-03-04T03:55:27.051Z,6.80
2019-03-04T03:57:53.135Z,6.80
2019-03-04T04:00:20.615Z,6.80
2019-03-04T04:02:46.720Z,6.80
2019-03-04T04:05:12.816Z,6.90
2019-03-04T04:07:38.887Z,7.00
2019-03-04T04:10:08.369Z,7.10
2019-03-04T04:12:34.472Z,7.10
2019-03-04T04:15:00.548Z,7.10
2019-03-04T04:17:26.628Z,7.20
2019-03-04T04:19:53.146Z,7.30
2019-03-04T04:22:22.270Z,7.30
2019-03-04T04:24:48.343Z,7.40
2019-03-04T04:27:14.420Z,7.20
2019-03-04T04:29:40.490Z,7.20
2019-03-04T04:32:06.572Z,7.20
2019-03-04T04:34:32.665Z,7.30
2019-03-04T04:36:58.836Z,7.20
2019-03-04T04:39:24.903Z,7.10
2019-03-04T04:41:50.982Z,7.10
2019-03-04T04:44:17.056Z,7.00
2019-03-04T04:46:48.243Z,7.00
2019-03-04T04:49:14.415Z,7.00
2019-03-04T04:51:40.491Z,7.00
2019-03-04T04:54:06.587Z,7.10
2019-03-04T04:56:32.662Z,7.10
2019-03-04T04:58:58.752Z,7.20
2019-03-04T05:01:24.863Z,7.20
2019-03-04T05:03:50.947Z,7.20
2019-03-04T05:06:17.011Z,7.20
2019-03-04T05:08:43.099Z,7.30
2019-03-04T05:11:09.375Z,7.30
2019-03-04T05:13:35.461Z,7.30
2019-03-04T05:16:01.530Z,7.20
2019-03-04T05:18:27.611Z,7.10
2019-03-04T05:20:53.692Z,7.00
2019-03-04T05:23:19.772Z,6.90
2019-03-04T05:25:45.840Z,7.00
2019-03-04T05:28:11.919Z,7.00
2019-03-04T05:30:37.988Z,7.00
2019-03-04T05:33:04.067Z,7.00
2019-03-04T05:35:30.122Z,7.10
2019-03-04T05:37:56.222Z,7.10
2019-03-04T05:40:22.380Z,7.10
2019-03-04T05:42:48.475Z,7.10
2019-03-04T05:45:15.640Z,7.10
2019-03-04T05:47:41.818Z,7.00
2019-03-04T05:50:14.128Z,7.00
2019-03-04T05:52:40.200Z,7.00
2019-03-04T05:55:12.194Z,6.90
2019-03-04T05:57:38.372Z,6.80
2019-03-04T06:00:11.059Z,6.80
2019-03-04T06:02:37.184Z,6.90
2019-03-04T06:05:05.963Z,6.90
2019-03-04T06:07:33.936Z,6.90
2019-03-04T06:10:00.016Z,6.80
2019-03-04T06:12:26.078Z,6.90
2019-03-04T06:14:52.171Z,6.90
2019-03-04T06:17:18.235Z,6.90
2019-03-04T06:19:44.316Z,7.00
2019-03-04T06:22:10.399Z,6.90
2019-03-04T06:24:36.583Z,7.00
2019-03-04T06:27:02.651Z,7.00
2019-03-04T06:29:28.727Z,7.00
2019-03-04T06:31:54.808Z,7.10
2019-03-04T06:34:20.899Z,7.10
2019-03-04T06:36:46.966Z,7.10
2019-03-04T06:39:13.052Z,7.20
2019-03-04T06:41:39.122Z,7.20
2019-03-04T06:44:05.220Z,7.30
2019-03-04T06:46:31.307Z,7.30
2019-03-04T06:48:57.390Z,7.50
2019-03-04T06:51:33.227Z,7.50
2019-03-04T06:54:02.834Z,7.60
2019-03-04T06:56:35.586Z,7.60
2019-03-04T06:59:05.476Z,7.70
2019-03-04T07:01:54.702Z,7.80
2019-03-04T07:04:27.622Z,7.90
2019-03-04T07:06:53.699Z,8.00
2019-03-04T07:09:39.654Z,8.00
2019-03-04T07:12:05.742Z,7.30
2019-03-04T07:14:31.827Z,8.20
2019-03-04T07:16:57.895Z,8.30
2019-03-04T07:19:23.985Z,8.40
2019-03-04T07:21:50.104Z,8.70
2019-03-04T07:24:16.284Z,8.40
2019-03-04T07:26:42.364Z,8.40
2019-03-04T07:29:08.453Z,8.50
2019-03-04T07:31:34.524Z,8.60
2019-03-04T07:34:00.623Z,8.80
2019-03-04T07:36:26.698Z,8.80
2019-03-04T07:38:54.771Z,8.90
2019-03-04T07:41:20.880Z,8.90
2019-03-04T07:43:46.958Z,9.10
2019-03-04T07:46:13.043Z,9.20
2019-03-04T07:48:39.115Z,9.30
2019-03-04T07:51:10.388Z,9.50
2019-03-04T07:53:45.828Z,9.60
2019-03-04T07:56:04.477Z,9.50
2019-03-04T07:58:30.565Z,9.80
2019-03-04T08:01:16.537Z,9.90
2019-03-04T08:03:42.626Z,9.50
2019-03-04T08:06:08.804Z,10.20
2019-03-04T08:08:35.672Z,10.40
2019-03-04T08:11:24.965Z,10.50
2019-03-04T08:14:04.153Z,10.60
2019-03-04T08:16:30.239Z,10.70
2019-03-04T08:18:56.294Z,11.00
2019-03-04T08:21:22.360Z,11.10
2019-03-04T08:23:48.444Z,11.30
2019-03-04T08:26:14.514Z,11.50
2019-03-04T08:28:40.599Z,11.70
2019-03-04T08:31:07.178Z,11.90
2019-03-04T08:33:33.253Z,12.10
2019-03-04T08:35:59.352Z,12.30
2019-03-04T08:38:25.438Z,12.50
2019-03-04T08:40:51.500Z,12.80
2019-03-04T08:43:17.585Z,12.90
2019-03-04T08:45:43.766Z,13.10
2019-03-04T08:48:09.941Z,13.10
2019-03-04T08:50:36.009Z,13.20
2019-03-04T08:53:02.109Z,13.30
2019-03-04T08:55:28.276Z,13.60
2019-03-04T08:57:54.343Z,13.70
2019-03-04T09:00:24.029Z,13.90
2019-03-04T09:02:50.109Z,14.10
2019-03-04T09:05:16.415Z,14.30
2019-03-04T09:07:42.585Z,14.60
2019-03-04T09:10:18.059Z,14.60
2019-03-04T09:12:44.143Z,14.50
2019-03-04T09:15:12.117Z,14.60
2019-03-04T09:17:38.521Z,14.70
2019-03-04T09:20:07.982Z,14.90
2019-03-04T09:22:34.081Z,15.30
2019-03-04T09:25:00.427Z,15.60
2019-03-04T09:27:26.604Z,15.70
2019-03-04T09:29:52.674Z,15.90
2019-03-04T09:32:18.751Z,16.00
2019-03-04T09:34:44.830Z,16.10
2019-03-04T09:37:10.919Z,16.30
2019-03-04T09:39:37.006Z,16.30
2019-03-04T09:42:04.986Z,16.40
2019-03-04T09:44:31.157Z,16.60
2019-03-04T09:46:57.239Z,16.80
2019-03-04T09:49:23.307Z,17.10
2019-03-04T09:51:49.407Z,16.60
2019-03-04T09:54:15.472Z,16.30
2019-03-04T09:56:41.568Z,16.20
2019-03-04T09:59:07.831Z,15.90
2019-03-04T10:01:40.688Z,15.60
2019-03-04T10:04:10.579Z,15.60
2019-03-04T10:06:49.235Z,15.70
2019-03-04T10:09:45.142Z,15.80
2019-03-04T10:12:26.969Z,15.90
2019-03-04T10:15:17.862Z,15.90
2019-03-04T10:18:06.184Z,15.80
2019-03-04T10:20:56.784Z,16.00
2019-03-04T10:23:52.646Z,16.20
2019-03-04T10:26:51.317Z,16.20
2019-03-04T10:29:38.235Z,16.30
2019-03-04T10:32:14.168Z,16.20
2019-03-04T10:35:00.677Z,16.30
2019-03-04T10:37:36.198Z,16.30
2019-03-04T10:40:26.175Z,16.00
2019-03-04T10:43:08.446Z,15.60
2019-03-04T10:45:47.652Z,15.20
2019-03-04T10:48:13.752Z,15.20
2019-03-04T10:50:39.814Z,15.10
2019-03-04T10:53:05.915Z,15.00
2019-03-04T10:55:41.204Z,14.60
2019-03-04T10:57:59.966Z,14.40
2019-03-04T11:00:26.051Z,14.60
2019-03-04T11:02:52.120Z,14.90
2019-03-04T11:05:18.291Z,15.00
2019-03-04T11:07:44.380Z,15.00
2019-03-04T11:10:13.511Z,15.10
2019-03-04T11:12:39.602Z,15.10
2019-03-04T11:15:23.481Z,14.70
2019-03-04T11:17:49.675Z,14.20
2019-03-04T11:20:15.853Z,13.90
2019-03-04T11:22:42.030Z,13.70
2019-03-04T11:25:08.394Z,13.50
2019-03-04T11:27:34.488Z,13.40
2019-03-04T11:30:00.567Z,13.20
2019-03-04T11:32:26.651Z,13.30
2019-03-04T11:34:52.719Z,13.20
2019-03-04T11:37:18.811Z,13.10
2019-03-04T11:39:55.409Z,12.90
2019-03-04T11:42:21.495Z,12.80
2019-03-04T11:44:47.563Z,12.70
2019-03-04T11:47:13.627Z,12.50
2019-03-04T11:49:40.339Z,12.30
2019-03-04T11:52:06.603Z,12.30
2019-03-04T11:54:32.675Z,11.90
2019-03-04T11:56:58.766Z,11.60
2019-03-04T11:59:24.827Z,11.30
2019-03-04T12:01:50.907Z,10.80
2019-03-04T12:04:16.994Z,10.40
2019-03-04T12:06:43.326Z,10.20
2019-03-04T12:09:12.260Z,10.10
2019-03-04T12:11:38.583Z,9.60
2019-03-04T12:14:04.739Z,9.40
2019-03-04T12:16:30.827Z,9.40
2019-03-04T12:18:56.937Z,9.20
2019-03-04T12:21:23.116Z,9.10
2019-03-04T12:23:49.196Z,9.00
2019-03-04T12:26:15.276Z,9.00
2019-03-04T12:28:41.355Z,9.00
2019-03-04T12:31:07.426Z,8.90
2019-03-04T12:33:33.517Z,8.60
2019-03-04T12:35:59.691Z,8.50
2019-03-04T12:38:25.806Z,8.40
2019-03-04T12:40:51.955Z,8.30
2019-03-04T12:43:18.030Z,8.20
2019-03-04T12:45:44.119Z,8.20
2019-03-04T12:48:10.210Z,8.20
2019-03-04T12:50:36.400Z,8.20
2019-03-04T12:53:03.567Z,8.00
2019-03-04T12:55:29.648Z,7.90
2019-03-04T12:57:55.735Z,7.80
2019-03-04T13:00:29.166Z,7.50
2019-03-04T13:02:57.896Z,7.40
2019-03-04T13:05:23.238Z,7.20
2019-03-04T13:07:49.296Z,7.10
2019-03-04T13:10:16.600Z,6.90
2019-03-04T13:12:43.261Z,6.70
2019-03-04T13:15:12.625Z,6.60
2019-03-04T13:17:38.903Z,6.50
2019-03-04T13:20:08.767Z,6.40
2019-03-04T13:22:34.847Z,6.30
2019-03-04T13:25:00.921Z,6.30
2019-03-04T13:27:26.999Z,6.20
2019-03-04T13:29:53.074Z,6.10
2019-03-04T13:32:19.156Z,6.20
2019-03-04T13:34:45.227Z,6.20
2019-03-04T13:37:11.299Z,6.20
2019-03-04T13:39:37.379Z,6.20
2019-03-04T13:42:03.560Z,6.20
2019-03-04T13:44:29.626Z,6.20
2019-03-04T13:46:55.714Z,6.20
2019-03-04T13:49:21.869Z,6.10
2019-03-04T13:51:48.250Z,6.10
2019-03-04T13:54:14.326Z,6.00
2019-03-04T13:56:40.394Z,6.00
2019-03-04T13:59:06.471Z,6.20
2019-03-04T14:01:32.543Z,6.20
2019-03-04T14:03:58.623Z,6.20
2019-03-04T14:06:24.704Z,6.10
2019-03-04T14:08:52.831Z,6.20
2019-03-04T14:11:19.051Z,6.10
2019-03-04T14:13:45.158Z,6.10
2019-03-04T14:16:31.116Z,6.00
2019-03-04T14:18:57.246Z,5.80
2019-03-04T14:21:23.403Z,5.80
2019-03-04T14:23:49.479Z,5.80
2019-03-04T14:26:15.540Z,5.90
2019-03-04T14:28:41.627Z,5.90
2019-03-04T14:31:07.691Z,5.90
2019-03-04T14:33:33.885Z,5.90
2019-03-04T14:35:59.951Z,5.80
2019-03-04T14:38:26.023Z,5.70
2019-03-04T14:40:52.099Z,5.70
2019-03-04T14:43:18.203Z,5.70
2019-03-04T14:45:44.271Z,5.70
2019-03-04T14:48:10.351Z,5.80
2019-03-04T14:50:36.427Z,5.80
2019-03-04T14:53:03.101Z,5.70
2019-03-04T14:55:32.396Z,5.80
2019-03-04T14:57:58.480Z,5.80
2019-03-04T15:00:31.367Z,5.80
2019-03-04T15:02:57.428Z,5.80
2019-03-04T15:05:23.615Z,5.90
2019-03-04T15:07:49.690Z,5.90
2019-03-04T15:10:15.774Z,6.00
2019-03-04T15:12:41.931Z,5.70
2019-03-04T15:15:14.618Z,5.90
2019-03-04T15:17:40.708Z,5.90
2019-03-04T15:20:10.392Z,5.90
2019-03-04T15:22:36.473Z,6.00
2019-03-04T15:25:05.953Z,6.00
2019-03-04T15:27:32.055Z,6.00
2019-03-04T15:29:58.222Z,6.00
2019-03-04T15:32:24.383Z,6.00
2019-03-04T15:34:50.455Z,6.00
2019-03-04T15:37:16.646Z,6.10
2019-03-04T15:39:42.711Z,6.10
2019-03-04T15:42:08.804Z,6.10
2019-03-04T15:44:34.871Z,6.20
2019-03-04T15:47:00.964Z,6.30
2019-03-04T15:49:27.040Z,6.30
2019-03-04T15:51:53.191Z,6.30
2019-03-04T15:54:19.293Z,6.40
2019-03-04T15:56:45.457Z,6.40
2019-03-04T15:59:11.546Z,6.50
2019-03-04T16:01:37.611Z,6.50
2019-03-04T16:04:03.724Z,6.60
2019-03-04T16:06:29.806Z,6.70
2019-03-04T16:08:55.879Z,6.80
2019-03-04T16:11:21.961Z,6.90
2019-03-04T16:13:53.329Z,7.30
2019-03-04T16:16:16.231Z,8.20
2019-03-04T16:18:42.352Z,8.90
2019-03-04T16:21:08.543Z,9.20
2019-03-04T16:23:34.623Z,9.40
2019-03-04T16:26:04.427Z,9.50
2019-03-04T16:28:30.512Z,9.40
2019-03-04T16:30:56.614Z,9.20
2019-03-04T16:33:23.587Z,9.00
2019-03-04T16:35:49.671Z,8.80
2019-03-04T16:38:15.854Z,8.60
2019-03-04T16:40:41.919Z,8.60
2019-03-04T16:43:08.119Z,8.30
2019-03-04T16:45:34.220Z,8.20
2019-03-04T16:48:00.392Z,8.30
2019-03-04T16:50:29.286Z,8.30
2019-03-04T16:53:01.467Z,8.30
2019-03-04T16:55:27.550Z,8.40
2019-03-04T16:57:53.626Z,8.40
2019-03-04T17:00:20.624Z,8.40
2019-03-04T17:02:47.304Z,8.40
2019-03-04T17:05:15.472Z,8.40
2019-03-04T17:07:42.266Z,8.40
2019-03-04T17:10:10.650Z,8.40
2019-03-04T17:12:36.931Z,8.30
2019-03-04T17:15:06.640Z,8.30
2019-03-04T17:17:32.725Z,8.30
2019-03-04T17:19:58.809Z,8.30
2019-03-04T17:22:24.899Z,8.30
2019-03-04T17:24:50.987Z,8.30
2019-03-04T17:27:17.174Z,8.30
2019-03-04T17:29:43.254Z,8.20
2019-03-04T17:32:09.480Z,8.30
2019-03-04T17:34:35.659Z,8.10
2019-03-04T17:37:01.836Z,8.20
2019-03-04T17:39:27.924Z,8.20
2019-03-04T17:41:54.015Z,8.20
2019-03-04T17:44:21.994Z,8.10
2019-03-04T17:46:48.089Z,8.20
2019-03-04T17:49:14.246Z,8.10
2019-03-04T17:51:40.330Z,8.20
2019-03-04T17:54:06.395Z,8.20
2019-03-04T17:56:32.462Z,8.20
2019-03-04T17:58:58.550Z,8.20
2019-03-04T18:01:27.577Z,8.20
2019-03-04T18:03:53.652Z,8.20
2019-03-04T18:06:19.763Z,8.20
2019-03-04T18:08:45.833Z,8.10
2019-03-04T18:11:11.903Z,8.10
2019-03-04T18:13:37.987Z,8.00
2019-03-04T18:16:04.064Z,7.90
2019-03-04T18:18:30.242Z,7.80
2019-03-04T18:20:56.347Z,7.80
2019-03-04T18:23:22.426Z,7.80
2019-03-04T18:26:04.171Z,7.70
2019-03-04T18:28:57.530Z,7.70
2019-03-04T18:31:31.355Z,7.60
2019-03-04T18:34:03.954Z,7.50
2019-03-04T18:36:33.823Z,7.50
2019-03-04T18:39:24.762Z,7.50
2019-03-04T18:42:28.171Z,7.50
2019-03-04T18:45:16.798Z,7.40
2019-03-04T18:47:55.469Z,7.40
2019-03-04T18:50:23.082Z,7.40
2019-03-04T18:52:49.520Z,7.40
2019-03-04T18:55:15.626Z,7.30
2019-03-04T18:57:41.689Z,7.30
2019-03-04T19:00:14.480Z,7.30
2019-03-04T19:02:40.570Z,7.20
2019-03-04T19:05:08.431Z,7.20
2019-03-04T19:07:34.506Z,7.20
2019-03-04T19:10:00.603Z,7.10
2019-03-04T19:12:26.771Z,7.20
2019-03-04T19:14:52.839Z,7.20
2019-03-04T19:17:18.925Z,7.20
2019-03-04T19:19:45.008Z,7.10
2019-03-04T19:22:11.120Z,6.90
2019-03-04T19:24:37.333Z,6.50
2019-03-04T19:27:05.459Z,6.30
2019-03-04T19:29:31.640Z,6.20
2019-03-04T19:31:57.698Z,6.10
2019-03-04T19:34:23.906Z,5.90
2019-03-04T19:37:07.852Z,5.70
2019-03-04T19:39:34.545Z,5.50
2019-03-04T19:42:00.615Z,5.40
2019-03-04T19:44:26.800Z,5.30
2019-03-04T19:46:53.058Z,5.30
2019-03-04T19:49:19.302Z,5.20
2019-03-04T19:51:45.359Z,5.20
2019-03-04T19:54:12.925Z,5.20
2019-03-04T19:56:39.016Z,5.20
2019-03-04T19:59:05.187Z,5.10
2019-03-04T20:01:31.246Z,5.20
2019-03-04T20:03:57.328Z,5.00
2019-03-04T20:06:23.403Z,4.70
2019-03-04T20:08:49.503Z,4.40
2019-03-04T20:11:15.682Z,4.30
2019-03-04T20:13:41.763Z,4.30
2019-03-04T20:16:07.940Z,4.20
2019-03-04T20:18:34.084Z,4.10
2019-03-04T20:21:00.364Z,4.10
2019-03-04T20:23:26.505Z,4.00
2019-03-04T20:25:53.094Z,4.10
2019-03-04T20:28:19.339Z,4.00
2019-03-04T20:30:45.403Z,4.00
2019-03-04T20:33:11.562Z,4.00
2019-03-04T20:35:37.802Z,3.90
2019-03-04T20:38:22.348Z,4.00
2019-03-04T20:40:48.499Z,4.00
2019-03-04T20:43:14.608Z,4.10
2019-03-04T20:45:40.673Z,4.20
2019-03-04T20:48:06.757Z,4.20
2019-03-04T20:50:32.927Z,4.10
2019-03-04T20:52:59.095Z,4.10
2019-03-04T20:55:25.178Z,4.20
2019-03-04T20:57:51.234Z,4.10
2019-03-04T21:00:23.028Z,4.10
2019-03-04T21:02:49.197Z,4.00
2019-03-04T21:05:15.361Z,4.00
2019-03-04T21:07:41.952Z,4.00
2019-03-04T21:10:11.567Z,4.00
2019-03-04T21:12:38.347Z,4.10
2019-03-04T21:15:07.810Z,4.10
2019-03-04T21:17:33.886Z,4.20
2019-03-04T21:19:59.959Z,4.20
2019-03-04T21:22:26.131Z,4.20
2019-03-04T21:24:52.220Z,4.20
2019-03-04T21:27:18.803Z,4.00
2019-03-04T21:29:51.578Z,4.20
2019-03-04T21:32:24.303Z,4.20
2019-03-04T21:35:19.830Z,4.20
2019-03-04T21:37:46.419Z,4.20
2019-03-04T21:40:19.051Z,4.10
2019-03-04T21:42:48.946Z,4.10
2019-03-04T21:45:48.080Z,4.20
2019-03-04T21:48:23.648Z,4.30
2019-03-04T21:50:56.472Z,4.20
2019-03-04T21:53:32.360Z,4.30
2019-03-04T21:56:14.691Z,4.40
2019-03-04T21:58:40.785Z,4.40
2019-03-04T22:01:19.945Z,4.50
2019-03-04T22:03:46.144Z,4.50
2019-03-04T22:06:12.215Z,4.60
2019-03-04T22:08:38.383Z,4.60
2019-03-04T22:11:04.476Z,4.60
2019-03-04T22:13:30.644Z,4.60
2019-03-04T22:15:56.826Z,4.70
2019-03-04T22:18:22.893Z,4.70
2019-03-04T22:20:49.902Z,4.60
2019-03-04T22:23:16.078Z,4.60
2019-03-04T22:25:42.167Z,4.70
2019-03-04T22:28:08.232Z,4.70
2019-03-04T22:30:34.302Z,4.80
2019-03-04T22:33:00.375Z,4.80
2019-03-04T22:35:26.541Z,4.80
2019-03-04T22:37:53.321Z,4.80
2019-03-04T22:40:22.648Z,4.80
2019-03-04T22:42:48.822Z,4.90
2019-03-04T22:45:19.792Z,4.90
2019-03-04T22:47:47.336Z,4.90
2019-03-04T22:50:15.209Z,4.90
2019-03-04T22:52:41.378Z,4.90
2019-03-04T22:55:10.460Z,4.90
2019-03-04T22:57:36.531Z,5.00
2019-03-04T23:00:25.171Z,4.90
2019-03-04T23:02:54.936Z,5.00
2019-03-04T23:05:19.440Z,4.90
2019-03-04T23:07:45.606Z,4.90
2019-03-04T23:10:12.113Z,4.60
2019-03-04T23:12:44.800Z,4.00
2019-03-04T23:15:30.757Z,3.70
2019-03-04T23:17:56.836Z,2.80
2019-03-04T23:20:22.922Z,3.40
2019-03-04T23:22:48.997Z,3.40
2019-03-04T23:25:15.080Z,3.40
2019-03-04T23:27:41.147Z,3.40
2019-03-04T23:30:11.018Z,3.40
2019-03-04T23:32:37.102Z,3.40
2019-03-04T23:35:03.467Z,3.40
2019-03-04T23:37:29.553Z,3.40
2019-03-04T23:39:55.619Z,3.30
2019-03-04T23:42:21.728Z,3.40
2019-03-04T23:44:47.795Z,3.40
2019-03-04T23:47:13.880Z,3.40
2019-03-04T23:49:39.963Z,3.40
2019-03-04T23:52:06.050Z,3.40
2019-03-04T23:54:32.161Z,3.40
2019-03-04T23:56:58.355Z,3.40
2019-03-04T23:59:25.476Z,3.50
